createdAt,value
2018-12-29T00:00:22.173Z,100755.20
2018-12-29T00:02:50.829Z,100753.91
2018-12-29T00:05:19.293Z,100756.08
2018-12-29T00:07:47.791Z,100753.91
2018-12-29T00:10:16.276Z,100760.88
2018-12-29T00:12:44.735Z,100760.44
2018-12-29T00:15:13.448Z,100765.67
2018-12-29T00:17:41.909Z,100763.92
2018-12-29T00:20:10.385Z,100763.06
2018-12-29T00:22:39.110Z,100762.19
2018-12-29T00:25:07.573Z,100767.41
2018-12-29T00:27:37.050Z,100771.34
2018-12-29T00:30:06.103Z,100759.14
2018-12-29T00:32:34.583Z,100759.58
2018-12-29T00:35:03.230Z,100768.72
2018-12-29T00:37:31.739Z,100773.95
2018-12-29T00:40:00.276Z,100772.64
2018-12-29T00:42:28.918Z,100779.18
2018-12-29T00:45:02.422Z,100781.36
2018-12-29T00:47:27.660Z,100780.48
2018-12-29T00:49:57.083Z,100785.32
2018-12-29T00:52:27.543Z,100787.93
2018-12-29T00:54:56.097Z,100789.67
2018-12-29T00:57:24.560Z,100792.29
2018-12-29T00:59:53.946Z,100797.52
2018-12-29T01:02:23.622Z,100804.05
2018-12-29T01:04:52.166Z,100797.52
2018-12-29T01:07:20.722Z,100803.19
2018-12-29T01:09:49.455Z,100808.41
2018-12-29T01:12:18.003Z,100807.11
2018-12-29T01:14:46.477Z,100809.72
2018-12-29T01:17:14.996Z,100804.92
2018-12-29T01:19:43.460Z,100810.16
2018-12-29T01:22:11.978Z,100805.36
2018-12-29T01:24:41.420Z,100810.16
2018-12-29T01:27:09.887Z,100807.98
2018-12-29T01:29:38.570Z,100804.48
2018-12-29T01:32:07.050Z,100810.55
2018-12-29T01:34:36.528Z,100815.34
2018-12-29T01:37:05.451Z,100809.25
2018-12-29T01:39:34.982Z,100813.17
2018-12-29T01:42:03.462Z,100817.53
2018-12-29T01:44:32.088Z,100817.53
2018-12-29T01:47:00.625Z,100812.33
2018-12-29T01:49:29.136Z,100821.02
2018-12-29T01:51:57.611Z,100815.78
2018-12-29T01:54:26.298Z,100818.87
2018-12-29T01:56:54.767Z,100822.35
2018-12-29T01:59:23.284Z,100818.87
2018-12-29T02:01:51.806Z,100817.56
2018-12-29T02:04:22.218Z,100817.13
2018-12-29T02:06:50.863Z,100812.33
2018-12-29T02:09:20.242Z,100816.25
2018-12-29T02:11:48.725Z,100813.64
2018-12-29T02:14:17.247Z,100813.20
2018-12-29T02:16:45.727Z,100815.81
2018-12-29T02:19:14.412Z,100814.52
2018-12-29T02:21:42.881Z,100814.95
2018-12-29T02:24:11.412Z,100815.38
2018-12-29T02:26:39.928Z,100814.07
2018-12-29T02:29:08.406Z,100819.73
2018-12-29T02:31:36.925Z,100807.10
2018-12-29T02:34:05.472Z,100811.89
2018-12-29T02:36:34.125Z,100809.31
2018-12-29T02:39:02.608Z,100803.65
2018-12-29T02:41:31.084Z,100807.57
2018-12-29T02:43:59.598Z,100804.09
2018-12-29T02:46:28.066Z,100804.09
2018-12-29T02:48:56.863Z,100797.98
2018-12-29T02:51:25.339Z,100807.57
2018-12-29T02:53:54.795Z,100803.22
2018-12-29T02:56:23.309Z,100801.04
2018-12-29T02:58:51.782Z,100798.86
2018-12-29T03:01:20.738Z,100785.79
2018-12-29T03:03:49.197Z,100797.55
2018-12-29T03:06:17.693Z,100795.38
2018-12-29T03:08:46.198Z,100794.47
2018-12-29T03:11:14.679Z,100784.45
2018-12-29T03:13:43.143Z,100789.24
2018-12-29T03:16:12.760Z,100784.02
2018-12-29T03:18:41.265Z,100777.92
2018-12-29T03:21:09.728Z,100777.92
2018-12-29T03:23:38.431Z,100776.17
2018-12-29T03:26:08.900Z,100784.45
2018-12-29T03:28:37.415Z,100785.76
2018-12-29T03:31:06.030Z,100783.14
2018-12-29T03:33:35.748Z,100778.79
2018-12-29T03:36:04.221Z,100775.73
2018-12-29T03:38:32.739Z,100776.61
2018-12-29T03:41:01.219Z,100774.00
2018-12-29T03:43:29.933Z,100774.00
2018-12-29T03:45:59.344Z,100776.61
2018-12-29T03:48:27.826Z,100768.34
2018-12-29T03:50:56.359Z,100778.79
2018-12-29T03:53:24.961Z,100773.56
2018-12-29T03:55:53.783Z,100771.81
2018-12-29T03:58:22.279Z,100776.17
2018-12-29T04:00:50.845Z,100774.43
2018-12-29T04:03:19.350Z,100760.06
2018-12-29T04:05:47.855Z,100765.72
2018-12-29T04:08:16.505Z,100765.28
2018-12-29T04:10:44.976Z,100763.98
2018-12-29T04:13:13.445Z,100762.23
2018-12-29T04:15:41.969Z,100768.77
2018-12-29T04:18:10.445Z,100774.43
2018-12-29T04:20:39.140Z,100765.28
2018-12-29T04:23:07.605Z,100774.43
2018-12-29T04:25:36.169Z,100774.87
2018-12-29T04:28:04.699Z,100768.77
2018-12-29T04:30:33.166Z,100778.79
2018-12-29T04:33:01.782Z,100785.76
2018-12-29T04:35:30.227Z,100781.40
2018-12-29T04:37:58.715Z,100779.22
2018-12-29T04:40:27.530Z,100782.27
2018-12-29T04:42:56.063Z,100778.34
2018-12-29T04:45:24.541Z,100787.50
2018-12-29T04:47:53.092Z,100783.58
2018-12-29T04:50:22.531Z,100785.75
2018-12-29T04:52:51.086Z,100787.50
2018-12-29T04:55:20.440Z,100790.55
2018-12-29T04:57:48.983Z,100786.63
2018-12-29T05:00:17.509Z,100790.11
2018-12-29T05:02:46.893Z,100779.66
2018-12-29T05:05:15.442Z,100778.78
2018-12-29T05:07:43.927Z,100777.48
2018-12-29T05:10:12.417Z,100784.02
2018-12-29T05:12:40.938Z,100784.45
2018-12-29T05:15:09.419Z,100777.92
2018-12-29T05:17:38.113Z,100780.53
2018-12-29T05:20:06.768Z,100781.84
2018-12-29T05:22:35.257Z,100782.27
2018-12-29T05:25:03.804Z,100787.06
2018-12-29T05:27:33.190Z,100779.22
2018-12-29T05:30:02.260Z,100791.42
2018-12-29T05:32:30.767Z,100785.72
2018-12-29T05:34:59.231Z,100787.89
2018-12-29T05:37:27.827Z,100792.25
2018-12-29T05:39:56.293Z,100785.70
2018-12-29T05:42:24.992Z,100787.45
2018-12-29T05:44:54.454Z,100786.14
2018-12-29T05:47:25.518Z,100783.92
2018-12-29T05:49:54.092Z,100791.33
2018-12-29T05:52:22.617Z,100785.22
2018-12-29T05:54:51.199Z,100786.52
2018-12-29T05:57:19.672Z,100785.61
2018-12-29T05:59:48.150Z,100794.32
2018-12-29T06:02:16.889Z,100788.22
2018-12-29T06:04:45.356Z,100788.22
2018-12-29T06:07:13.888Z,100792.14
2018-12-29T06:09:42.461Z,100791.70
2018-12-29T06:12:11.012Z,100793.88
2018-12-29T06:14:39.492Z,100800.42
2018-12-29T06:17:07.989Z,100793.88
2018-12-29T06:19:36.461Z,100793.01
2018-12-29T06:22:06.189Z,100806.52
2018-12-29T06:24:34.666Z,100803.91
2018-12-29T06:27:03.148Z,100802.59
2018-12-29T06:29:31.664Z,100808.70
2018-12-29T06:32:02.155Z,100803.90
2018-12-29T06:34:30.813Z,100803.03
2018-12-29T06:36:59.301Z,100809.56
2018-12-29T06:39:27.785Z,100810.02
2018-12-29T06:41:56.319Z,100806.13
2018-12-29T06:44:25.773Z,100811.80
2018-12-29T06:46:58.116Z,100811.80
2018-12-29T06:49:26.602Z,100808.32
2018-12-29T06:51:55.077Z,100808.75
2018-12-29T06:54:23.634Z,100808.75
2018-12-29T06:56:52.108Z,100807.45
2018-12-29T06:59:20.708Z,100809.19
2018-12-29T07:01:49.199Z,100814.42
2018-12-29T07:04:17.680Z,100809.19
2018-12-29T07:06:46.240Z,100808.75
2018-12-29T07:09:14.758Z,100813.51
2018-12-29T07:11:43.290Z,100814.38
2018-12-29T07:14:11.781Z,100811.33
2018-12-29T07:16:42.328Z,100812.63
2018-12-29T07:19:10.652Z,100810.02
2018-12-29T07:21:39.131Z,100807.39
2018-12-29T07:24:07.654Z,100806.52
2018-12-29T07:26:36.131Z,100809.14
2018-12-29T07:29:04.820Z,100810.88
2018-12-29T07:31:33.340Z,100814.37
2018-12-29T07:34:01.873Z,100806.52
2018-12-29T07:36:30.393Z,100808.26
2018-12-29T07:38:58.865Z,100805.64
2018-12-29T07:41:27.472Z,100804.77
2018-12-29T07:43:56.033Z,100799.53
2018-12-29T07:46:24.579Z,100805.20
2018-12-29T07:48:53.169Z,100805.63
2018-12-29T07:51:21.676Z,100806.94
2018-12-29T07:53:50.290Z,100811.27
2018-12-29T07:56:18.861Z,100814.31
2018-12-29T07:58:47.342Z,100809.52
2018-12-29T08:01:16.002Z,100814.30
2018-12-29T08:03:44.720Z,100819.53
2018-12-29T08:06:13.224Z,100816.91
2018-12-29T08:08:42.853Z,100820.78
2018-12-29T08:11:11.358Z,100823.39
2018-12-29T08:13:39.867Z,100815.09
2018-12-29T08:16:08.399Z,100822.06
2018-12-29T08:18:36.872Z,100820.75
2018-12-29T08:21:05.478Z,100819.87
2018-12-29T08:23:33.956Z,100822.92
2018-12-29T08:26:03.698Z,100822.48
2018-12-29T08:28:32.215Z,100826.84
2018-12-29T08:31:00.726Z,100824.62
2018-12-29T08:33:30.112Z,100832.90
2018-12-29T08:35:58.615Z,100823.73
2018-12-29T08:38:27.153Z,100822.84
2018-12-29T08:40:55.641Z,100825.89
2018-12-29T08:43:24.120Z,100834.18
2018-12-29T08:45:52.630Z,100828.06
2018-12-29T08:48:21.116Z,100829.80
2018-12-29T08:50:49.656Z,100835.87
2018-12-29T08:53:19.057Z,100827.13
2018-12-29T08:55:47.626Z,100836.30
2018-12-29T08:58:16.263Z,100834.11
2018-12-29T09:00:44.792Z,100831.48
2018-12-29T09:03:13.341Z,100837.58
2018-12-29T09:05:42.896Z,100844.12
2018-12-29T09:08:11.374Z,100843.25
2018-12-29T09:10:39.928Z,100838.02
2018-12-29T09:13:08.490Z,100843.69
2018-12-29T09:15:37.182Z,100835.83
2018-12-29T09:18:05.662Z,100842.36
2018-12-29T09:20:34.212Z,100837.08
2018-12-29T09:23:02.748Z,100831.39
2018-12-29T09:25:32.200Z,100828.74
2018-12-29T09:28:00.865Z,100834.34
2018-12-29T09:30:29.339Z,100825.14
2018-12-29T09:32:57.814Z,100826.87
2018-12-29T09:35:26.393Z,100824.22
2018-12-29T09:37:54.874Z,100821.55
2018-12-29T09:40:23.470Z,100821.95
2018-12-29T09:42:52.036Z,100823.27
2018-12-29T09:45:20.587Z,100814.54
2018-12-29T09:47:49.242Z,100818.05
2018-12-29T09:50:17.721Z,100807.17
2018-12-29T09:52:46.195Z,100807.61
2018-12-29T09:55:14.801Z,100813.33
2018-12-29T09:57:43.357Z,100803.29
2018-12-29T10:00:12.118Z,100813.80
2018-12-29T10:02:40.687Z,100812.55
2018-12-29T10:05:09.485Z,100806.87
2018-12-29T10:07:38.137Z,100812.99
2018-12-29T10:10:06.734Z,100795.09
2018-12-29T10:12:35.204Z,100799.46
2018-12-29T10:15:04.222Z,100793.81
2018-12-29T10:17:32.681Z,100793.80
2018-12-29T10:20:01.180Z,100791.19
2018-12-29T10:22:29.698Z,100783.30
2018-12-29T10:24:59.118Z,100776.67
2018-12-29T10:27:27.876Z,100772.70
2018-12-29T10:29:56.358Z,100780.11
2018-12-29T10:32:24.865Z,100770.95
2018-12-29T10:34:53.405Z,100781.88
2018-12-29T10:37:21.968Z,100776.66
2018-12-29T10:39:50.668Z,100783.22
2018-12-29T10:42:19.226Z,100780.61
2018-12-29T10:44:47.701Z,100779.74
2018-12-29T10:47:16.232Z,100777.13
2018-12-29T10:49:44.840Z,100777.96
2018-12-29T10:52:13.543Z,100759.59
2018-12-29T10:54:42.015Z,100755.22
2018-12-29T10:57:10.510Z,100749.14
2018-12-29T10:59:39.046Z,100758.78
2018-12-29T11:02:07.625Z,100763.64
2018-12-29T11:04:36.470Z,100753.60
2018-12-29T11:07:05.075Z,100741.84
2018-12-29T11:09:33.551Z,100744.02
2018-12-29T11:12:02.173Z,100751.00
2018-12-29T11:14:30.694Z,100740.95
2018-12-29T11:17:00.493Z,100753.19
2018-12-29T11:19:29.010Z,100756.23
2018-12-29T11:21:58.503Z,100739.63
2018-12-29T11:24:27.042Z,100740.49
2018-12-29T11:26:55.603Z,100741.76
2018-12-29T11:29:24.184Z,100745.25
2018-12-29T11:31:53.785Z,100737.38
2018-12-29T11:34:22.269Z,100741.28
2018-12-29T11:36:50.953Z,100739.97
2018-12-29T11:39:19.435Z,100739.06
2018-12-29T11:41:48.164Z,100738.19
2018-12-29T11:44:16.661Z,100733.80
2018-12-29T11:46:45.586Z,100741.66
2018-12-29T11:49:17.993Z,100731.18
2018-12-29T11:51:44.650Z,100730.73
2018-12-29T11:54:13.166Z,100729.02
2018-12-29T11:56:41.707Z,100734.69
2018-12-29T11:59:10.515Z,100731.62
2018-12-29T12:01:39.038Z,100731.61
2018-12-29T12:04:07.525Z,100725.92
2018-12-29T12:06:36.042Z,100728.13
2018-12-29T12:09:05.962Z,100727.25
2018-12-29T12:11:35.688Z,100729.45
2018-12-29T12:14:06.366Z,100725.53
2018-12-29T12:16:35.313Z,100731.22
2018-12-29T12:19:03.843Z,100724.25
2018-12-29T12:21:32.411Z,100725.13
2018-12-29T12:24:00.893Z,100719.45
2018-12-29T12:26:29.750Z,100721.65
2018-12-29T12:28:58.288Z,100713.79
2018-12-29T12:31:27.552Z,100709.86
2018-12-29T12:33:56.193Z,100715.09
2018-12-29T12:36:25.132Z,100713.37
2018-12-29T12:38:54.020Z,100705.06
2018-12-29T12:41:22.981Z,100712.05
2018-12-29T12:43:51.833Z,100705.50
2018-12-29T12:46:21.432Z,100702.45
2018-12-29T12:48:50.395Z,100710.75
2018-12-29T12:51:20.061Z,100708.57
2018-12-29T12:53:48.850Z,100702.94
2018-12-29T12:56:17.457Z,100702.50
2018-12-29T12:58:48.158Z,100706.45
2018-12-29T13:01:17.034Z,100692.47
2018-12-29T13:03:45.508Z,100695.09
2018-12-29T13:06:14.033Z,100698.16
2018-12-29T13:08:42.569Z,100697.72
2018-12-29T13:11:11.645Z,100693.36
2018-12-29T13:13:40.471Z,100689.43
2018-12-29T13:16:09.076Z,100684.62
2018-12-29T13:18:37.741Z,100690.28
2018-12-29T13:21:06.224Z,100691.17
2018-12-29T13:23:36.798Z,100689.86
2018-12-29T13:26:05.602Z,100688.97
2018-12-29T13:28:34.116Z,100686.36
2018-12-29T13:31:02.603Z,100692.05
2018-12-29T13:33:31.133Z,100688.11
2018-12-29T13:35:59.609Z,100685.06
2018-12-29T13:38:28.643Z,100677.64
2018-12-29T13:40:57.109Z,100680.70
2018-12-29T13:43:25.603Z,100693.80
2018-12-29T13:45:57.117Z,100682.45
2018-12-29T13:48:27.506Z,100687.27
2018-12-29T13:50:56.251Z,100692.07
2018-12-29T13:53:24.901Z,100685.97
2018-12-29T13:55:53.375Z,100698.21
2018-12-29T13:58:21.933Z,100703.02
2018-12-29T14:00:50.493Z,100694.73
2018-12-29T14:03:19.203Z,100692.55
2018-12-29T14:05:47.671Z,100693.85
2018-12-29T14:08:16.151Z,100692.55
2018-12-29T14:10:44.747Z,100693.42
2018-12-29T14:13:13.387Z,100685.14
2018-12-29T14:15:41.922Z,100687.31
2018-12-29T14:18:10.447Z,100694.31
2018-12-29T14:20:38.974Z,100686.91
2018-12-29T14:23:07.905Z,100690.00
2018-12-29T14:25:36.375Z,100692.14
2018-12-29T14:28:04.915Z,100691.76
2018-12-29T14:30:33.444Z,100693.07
2018-12-29T14:33:02.007Z,100687.83
2018-12-29T14:35:30.956Z,100683.91
2018-12-29T14:37:59.801Z,100684.77
2018-12-29T14:40:28.276Z,100681.73
2018-12-29T14:42:56.801Z,100679.98
2018-12-29T14:45:25.284Z,100680.84
2018-12-29T14:47:53.944Z,100681.28
2018-12-29T14:50:22.858Z,100683.91
2018-12-29T14:52:51.336Z,100682.59
2018-12-29T14:55:19.953Z,100679.97
2018-12-29T14:57:48.550Z,100677.34
2018-12-29T15:00:18.378Z,100676.48
2018-12-29T15:02:47.141Z,100678.66
2018-12-29T15:05:15.616Z,100677.36
2018-12-29T15:07:44.559Z,100684.34
2018-12-29T15:10:13.052Z,100685.66
2018-12-29T15:12:41.692Z,100682.61
2018-12-29T15:15:10.806Z,100671.69
2018-12-29T15:17:39.281Z,100664.71
2018-12-29T15:20:09.284Z,100677.37
2018-12-29T15:22:37.763Z,100678.23
2018-12-29T15:25:06.695Z,100683.91
2018-12-29T15:27:35.673Z,100676.94
2018-12-29T15:30:05.905Z,100672.14
2018-12-29T15:32:34.439Z,100679.55
2018-12-29T15:35:03.299Z,100678.26
2018-12-29T15:37:31.877Z,100676.95
2018-12-29T15:40:00.363Z,100680.87
2018-12-29T15:42:29.207Z,100673.03
2018-12-29T15:44:57.739Z,100674.78
2018-12-29T15:47:26.285Z,100677.40
2018-12-29T15:49:55.264Z,100680.02
2018-12-29T15:52:23.792Z,100677.40
2018-12-29T15:54:52.762Z,100676.52
2018-12-29T15:57:21.306Z,100683.05
2018-12-29T15:59:50.161Z,100679.12
2018-12-29T16:02:18.841Z,100674.33
2018-12-29T16:04:47.897Z,100679.58
2018-12-29T16:07:16.371Z,100671.30
2018-12-29T16:09:44.877Z,100671.73
2018-12-29T16:12:13.732Z,100664.75
2018-12-29T16:14:42.550Z,100674.79
2018-12-29T16:17:11.026Z,100656.91
2018-12-29T16:19:39.569Z,100670.87
2018-12-29T16:22:08.433Z,100668.27
2018-12-29T16:24:38.673Z,100678.76
2018-12-29T16:27:08.341Z,100664.84
2018-12-29T16:29:37.860Z,100655.27
2018-12-29T16:32:06.420Z,100660.53
2018-12-29T16:34:34.899Z,100654.44
2018-12-29T16:37:03.652Z,100661.43
2018-12-29T16:39:32.517Z,100651.84
2018-12-29T16:42:01.004Z,100639.19
2018-12-29T16:44:29.716Z,100643.98
2018-12-29T16:46:58.254Z,100658.80
2018-12-29T16:49:26.735Z,100645.27
2018-12-29T16:51:55.282Z,100646.57
2018-12-29T16:54:24.731Z,100640.03
2018-12-29T16:56:54.551Z,100638.73
2018-12-29T16:59:23.411Z,100637.44
2018-12-29T17:01:51.919Z,100626.09
2018-12-29T17:04:20.428Z,100630.47
2018-12-29T17:06:48.927Z,100641.36
2018-12-29T17:09:17.840Z,100634.38
2018-12-29T17:11:52.317Z,100624.78
2018-12-29T17:14:16.675Z,100620.86
2018-12-29T17:16:45.469Z,100615.20
2018-12-29T17:19:15.096Z,100614.36
2018-12-29T17:21:43.741Z,100606.08
2018-12-29T17:24:12.613Z,100612.63
2018-12-29T17:26:41.194Z,100600.85
2018-12-29T17:29:09.822Z,100592.13
2018-12-29T17:31:38.306Z,100585.16
2018-12-29T17:34:07.503Z,100570.33
2018-12-29T17:36:41.852Z,100572.95
2018-12-29T17:39:07.310Z,100565.09
2018-12-29T17:41:36.013Z,100569.47
2018-12-29T17:44:04.559Z,100581.24
2018-12-29T17:46:34.740Z,100591.70
2018-12-29T17:49:03.710Z,100584.73
2018-12-29T17:51:32.215Z,100578.19
2018-12-29T17:54:02.743Z,100575.12
2018-12-29T17:56:31.605Z,100575.56
2018-12-29T17:59:00.347Z,100571.63
2018-12-29T18:01:28.899Z,100559.86
2018-12-29T18:03:57.383Z,100555.94
2018-12-29T18:06:25.900Z,100562.05
2018-12-29T18:08:54.764Z,100552.46
2018-12-29T18:11:24.404Z,100555.09
2018-12-29T18:13:56.371Z,100559.88
2018-12-29T18:16:24.888Z,100549.42
2018-12-29T18:18:53.519Z,100548.53
2018-12-29T18:21:22.068Z,100547.23
2018-12-29T18:23:50.603Z,100537.61
2018-12-29T18:26:19.502Z,100528.89
2018-12-29T18:28:48.404Z,100528.88
2018-12-29T18:31:17.051Z,100528.00
2018-12-29T18:33:46.096Z,100519.27
2018-12-29T18:36:14.724Z,100526.25
2018-12-29T18:38:43.584Z,100524.94
2018-12-29T18:41:12.134Z,100537.59
2018-12-29T18:43:40.739Z,100525.37
2018-12-29T18:46:09.337Z,100526.24
2018-12-29T18:48:37.928Z,100519.27
2018-12-29T18:51:06.405Z,100521.00
2018-12-29T18:53:34.977Z,100515.77
2018-12-29T18:56:03.614Z,100510.53
2018-12-29T18:58:36.759Z,100511.42
2018-12-29T19:01:06.311Z,100508.73
2018-12-29T19:03:34.794Z,100514.02
2018-12-29T19:06:03.807Z,100516.59
2018-12-29T19:08:32.321Z,100502.63
2018-12-29T19:11:00.955Z,100507.42
2018-12-29T19:13:29.540Z,100511.36
2018-12-29T19:15:58.284Z,100503.06
2018-12-29T19:18:27.849Z,100511.78
2018-12-29T19:20:56.410Z,100513.09
2018-12-29T19:23:25.054Z,100516.56
2018-12-29T19:25:53.948Z,100517.42
2018-12-29T19:28:22.806Z,100503.89
2018-12-29T19:30:51.699Z,100508.23
2018-12-29T19:33:20.626Z,100513.02
2018-12-29T19:35:52.836Z,100513.44
2018-12-29T19:38:21.807Z,100509.52
2018-12-29T19:40:51.065Z,100512.98
2018-12-29T19:43:20.170Z,100503.80
2018-12-29T19:45:48.652Z,100512.53
2018-12-29T19:48:17.235Z,100509.86
2018-12-29T19:50:45.767Z,100504.19
2018-12-29T19:53:14.427Z,100509.42
2018-12-29T19:55:42.954Z,100498.50
2018-12-29T19:58:11.471Z,100500.23
2018-12-29T20:00:40.052Z,100490.61
2018-12-29T20:03:08.870Z,100493.23
2018-12-29T20:05:37.655Z,100477.94
2018-12-29T20:08:06.347Z,100477.94
2018-12-29T20:10:34.906Z,100484.48
2018-12-29T20:13:03.747Z,100487.52
2018-12-29T20:15:32.347Z,100481.41
2018-12-29T20:18:00.840Z,100477.06
2018-12-29T20:20:29.585Z,100471.36
2018-12-29T20:22:58.137Z,100463.48
2018-12-29T20:25:26.649Z,100463.48
2018-12-29T20:27:55.167Z,100469.16
2018-12-29T20:30:23.700Z,100468.30
2018-12-29T20:32:58.901Z,100463.95
2018-12-29T20:35:22.587Z,100456.92
2018-12-29T20:37:51.246Z,100458.23
2018-12-29T20:40:19.730Z,100453.42
2018-12-29T20:42:48.450Z,100442.52
2018-12-29T20:45:17.058Z,100440.33
2018-12-29T20:47:45.638Z,100442.52
2018-12-29T20:50:14.468Z,100436.41
2018-12-29T20:52:44.172Z,100437.71
2018-12-29T20:55:12.667Z,100439.48
2018-12-29T20:57:41.292Z,100430.73
2018-12-29T21:00:10.513Z,100432.51
2018-12-29T21:02:39.522Z,100425.52
2018-12-29T21:05:08.551Z,100416.35
2018-12-29T21:07:37.219Z,100412.00
2018-12-29T21:10:07.098Z,100411.54
2018-12-29T21:12:35.779Z,100407.17
2018-12-29T21:15:05.055Z,100398.45
2018-12-29T21:17:33.575Z,100393.20
2018-12-29T21:20:02.058Z,100389.70
2018-12-29T21:22:30.593Z,100382.72
2018-12-29T21:24:59.236Z,100375.72
2018-12-29T21:27:27.837Z,100372.23
2018-12-29T21:29:56.340Z,100368.31
2018-12-29T21:32:25.224Z,100364.82
2018-12-29T21:34:53.768Z,100353.91
2018-12-29T21:37:22.384Z,100344.76
2018-12-29T21:39:51.279Z,100343.89
2018-12-29T21:42:20.789Z,100336.48
2018-12-29T21:44:49.436Z,100331.26
2018-12-29T21:47:18.028Z,100323.87
2018-12-29T21:49:46.515Z,100317.78
2018-12-29T21:52:15.251Z,100318.24
2018-12-29T21:54:43.791Z,100306.48
2018-12-29T21:57:12.391Z,100300.80
2018-12-29T21:59:43.868Z,100303.44
2018-12-29T22:02:12.343Z,100301.69
2018-12-29T22:04:40.890Z,100299.06
2018-12-29T22:07:09.682Z,100286.39
2018-12-29T22:09:38.169Z,100279.85
2018-12-29T22:12:06.691Z,100279.85
2018-12-29T22:14:35.236Z,100279.01
2018-12-29T22:17:03.861Z,100273.77
2018-12-29T22:19:33.484Z,100272.91
2018-12-29T22:22:01.969Z,100267.22
2018-12-29T22:24:30.534Z,100258.50
2018-12-29T22:26:59.405Z,100258.11
2018-12-29T22:29:28.055Z,100253.32
2018-12-29T22:31:56.539Z,100244.63
2018-12-29T22:34:25.109Z,100231.17
2018-12-29T22:36:53.662Z,100219.00
2018-12-29T22:39:22.172Z,100198.66
2018-12-29T22:41:50.807Z,100189.61
2018-12-29T22:44:20.261Z,100208.96
2018-12-29T22:46:48.757Z,100214.29
2018-12-29T22:49:17.311Z,100208.73
2018-12-29T22:51:45.805Z,100211.02
2018-12-29T22:54:14.662Z,100209.83
2018-12-29T22:56:43.176Z,100211.19
2018-12-29T22:59:11.785Z,100206.03
2018-12-29T23:01:41.229Z,100202.19
2018-12-29T23:04:09.814Z,100193.53
2018-12-29T23:06:38.521Z,100187.48
2018-12-29T23:09:07.477Z,100190.62
2018-12-29T23:11:36.033Z,100193.27
2018-12-29T23:14:04.668Z,100188.95
2018-12-29T23:16:33.196Z,100188.08
2018-12-29T23:19:03.038Z,100183.73
2018-12-29T23:21:31.519Z,100184.16
2018-12-29T23:24:00.168Z,100186.34
2018-12-29T23:26:28.698Z,100170.62
2018-12-29T23:28:57.180Z,100178.45
2018-12-29T23:31:25.946Z,100172.34
2018-12-29T23:33:54.426Z,100174.94
2018-12-29T23:36:23.183Z,100164.48
2018-12-29T23:38:51.781Z,100162.24
2018-12-29T23:41:20.379Z,100163.09
2018-12-29T23:43:49.213Z,100159.16
2018-12-29T23:46:17.713Z,100154.77
2018-12-29T23:48:47.128Z,100151.27
2018-12-29T23:51:15.657Z,100151.26
2018-12-29T23:53:44.135Z,100146.45
2018-12-29T23:56:13.064Z,100143.84
2018-12-29T23:58:41.550Z,100139.90
